Holesov, Czech Republic
Current Conditions -  °F | °C
As of 8:30 PM on Saturday 20 Dec 2014 (Local Time) from LKMT Reporting Station
Broken Clouds Broken Clouds  
Wind Chill: 31°   Ceiling: 3600
Heat Index: 41°   Visibility: 6mi
Dew Point: 30°   Wind: 22mph
Humidity: 65%   Direction: 220°SW
Pressure: 29.94"   Gusts: NA
Location:  49.34°N, 17.58°E
Report Text: LKMT 201830Z 22019KT 9999 BKN036 05/M01 Q1014 NOSIG
Loading
Personal Weather Stations






























Interactive Weather Map New forecast layout! Learn more

10-Day Weather Forecast

Advertisements
Track Severe Weather on mobile